Cap Aiguades — FMII — position and weather

sailwx.info

Track history (hours):
 
Tides and Currents Weather Stations Pressure Air Temp Water Temp Dewpoint Dewpoint Depression Visibility Wind Speed Wind Dir Waves Ship Positions

Cap Aiguades

Last reported at 2017-Jul-28 08:03 UTC. Time now 2017-Jul-28 10:46 UTC.
Position N 43°17' E 005°04'.

Length 89 m; draft 5 m.

Type: Ship. MMSI: 228237800.

Date/timePositionNaut miles runAvg speedWind from/ knotsBaromVisibWave heightAir tempDewpointWater temp
2017-Jul-28 08:03N 43°17' E 005°04'111.1
2017-Jul-28 08:00N 43°17' E 005°03'610.9
2017-Jul-28 07:27N 43°22' E 004°58'2 4.4
2017-Jul-28 07:00N 43°24' E 004°59'0 0.0
2017-Jul-28 06:30N 43°24' E 004°59'0 0.0
2017-Jul-28 06:00N 43°24' E 004°59'0 0.0
2017-Jul-28 05:30N 43°24' E 004°59'0 0.0
2017-Jul-28 05:00N 43°24' E 004°59'0 0.0
2017-Jul-28 04:30N 43°24' E 004°59'0 0.0
2017-Jul-28 04:00N 43°24' E 004°59'0 0.0
2017-Jul-28 03:30N 43°24' E 004°59'0 0.0
2017-Jul-28 03:00N 43°24' E 004°59'0 0.0
2017-Jul-28 02:30N 43°24' E 004°59'0 0.0
2017-Jul-28 02:00N 43°24' E 004°59'0 0.0
2017-Jul-28 01:30N 43°24' E 004°59'0 0.0
2017-Jul-28 01:00N 43°24' E 004°59'0 0.0
2017-Jul-28 00:30N 43°24' E 004°59'0 0.0
2017-Jul-28 00:00N 43°24' E 004°59'0 0.0
2017-Jul-27 23:30N 43°24' E 004°59'0 0.0
2017-Jul-27 23:00N 43°24' E 004°59'0 0.0
2017-Jul-27 22:30N 43°24' E 004°59'0 0.9
2017-Jul-27 22:00N 43°24' E 004°60'0 0.0
2017-Jul-27 21:30N 43°24' E 004°60'0 0.0
2017-Jul-27 21:00N 43°24' E 004°60'0 0.0
2017-Jul-27 20:30N 43°24' E 004°60'0 0.0
2017-Jul-27 20:00N 43°24' E 004°60'0 0.0
2017-Jul-27 19:30N 43°24' E 004°60'0 0.7
2017-Jul-27 19:00N 43°24' E 004°59'0 0.0
2017-Jul-27 18:30N 43°24' E 004°59'0 0.0
2017-Jul-27 18:00N 43°24' E 004°59'0 0.0
2017-Jul-27 17:30N 43°24' E 004°59'0 0.0
2017-Jul-27 17:00N 43°24' E 004°59'0 0.0
2017-Jul-27 16:30N 43°24' E 004°59'0 0.0
2017-Jul-27 16:00N 43°24' E 004°59'0 0.0
2017-Jul-27 15:30N 43°24' E 004°59'0 0.0
2017-Jul-27 15:00N 43°24' E 004°59'0 0.0
2017-Jul-27 14:00N 43°24' E 004°59'0 0.0
2017-Jul-27 13:30N 43°24' E 004°59'0 0.0
2017-Jul-27 13:00N 43°24' E 004°59'0 0.0
2017-Jul-27 12:30N 43°24' E 004°59'0 0.0
2017-Jul-27 12:00N 43°24' E 004°59'0 0.0
2017-Jul-27 11:30N 43°24' E 004°59'0 0.0
2017-Jul-27 11:00N 43°24' E 004°59'0 0.0
2017-Jul-27 10:30N 43°24' E 004°59'0 0.0
2017-Jul-27 10:00N 43°24' E 004°59'0 0.0
2017-Jul-27 09:30N 43°24' E 004°59'0 0.0
2017-Jul-27 09:00N 43°24' E 004°59'0 0.0
2017-Jul-27 08:30N 43°24' E 004°59'0 0.0
2017-Jul-27 08:00N 43°24' E 004°59'0 0.0
2017-Jul-27 07:30N 43°24' E 004°59'0 0.0
2017-Jul-27 07:00N 43°24' E 004°59'0 0.0
2017-Jul-27 06:30N 43°24' E 004°59'0 0.0
2017-Jul-27 06:00N 43°24' E 004°59'0 0.0
2017-Jul-27 05:30N 43°24' E 004°59'5 8.1
2017-Jul-27 04:53N 43°19' E 004°60'510.4
2017-Jul-27 04:25N 43°14' E 005°02'4 9.5
2017-Jul-27 04:00N 43°11' E 005°06'3810.2
2017-Jul-27 00:15N 43°05' E 005°58'3 0.4
2017-Jul-26 17:53N 43°07' E 005°55'1 2.2
2017-Jul-26 17:28N 43°06' E 005°53'0 0.0
2017-Jul-26 16:58N 43°06' E 005°53'0 0.0
2017-Jul-26 16:25N 43°06' E 005°53'0 0.0
2017-Jul-26 15:58N 43°06' E 005°53'0 0.0
2017-Jul-26 15:28N 43°06' E 005°53'0 0.0
2017-Jul-26 14:55N 43°06' E 005°53'0 0.0
2017-Jul-26 13:58N 43°06' E 005°53'0 0.0
2017-Jul-26 13:31N 43°06' E 005°53'0 0.0
2017-Jul-26 12:58N 43°06' E 005°53'0 0.0
2017-Jul-26 12:28N 43°06' E 005°53'0 0.0
2017-Jul-26 11:58N 43°06' E 005°53'0 0.0
2017-Jul-26 11:28N 43°06' E 005°53'0 0.0
2017-Jul-26 10:58N 43°06' E 005°53'0 0.0
2017-Jul-26 10:28N 43°06' E 005°53'0 0.0
2017-Jul-26 09:58N 43°06' E 005°53'1 0.1
2017-Jul-26 05:30N 43°06' E 005°54'1 1.0
2017-Jul-26 04:59N 43°06' E 005°53'0 0.0
2017-Jul-26 04:29N 43°06' E 005°53'0 0.0
2017-Jul-26 03:59N 43°06' E 005°53'0 0.0
2017-Jul-26 03:29N 43°06' E 005°53'0 0.0
2017-Jul-26 02:59N 43°06' E 005°53'0 0.0
2017-Jul-26 02:29N 43°06' E 005°53'0 0.0
2017-Jul-26 01:59N 43°06' E 005°53'0 0.0
2017-Jul-26 01:29N 43°06' E 005°53'0 0.0
2017-Jul-26 00:59N 43°06' E 005°53'0 0.0
2017-Jul-26 00:29N 43°06' E 005°53'0 0.0
2017-Jul-25 23:59N 43°06' E 005°53'0 0.0
2017-Jul-25 23:29N 43°06' E 005°53'0 0.0
2017-Jul-25 22:59N 43°06' E 005°53'0 0.0
2017-Jul-25 22:29N 43°06' E 005°53'1 0.2
2017-Jul-25 17:55N 43°06' E 005°55'1 2.1
2017-Jul-25 17:29N 43°06' E 005°53'0 0.0
2017-Jul-25 16:59N 43°06' E 005°53'0 0.0
2017-Jul-25 16:29N 43°06' E 005°53'0 0.0
2017-Jul-25 16:00N 43°06' E 005°53'0 0.0
2017-Jul-25 15:30N 43°06' E 005°53'0 0.0
2017-Jul-25 15:00N 43°06' E 005°53'0 0.0
2017-Jul-25 14:00N 43°06' E 005°53'0 0.0
2017-Jul-25 13:30N 43°06' E 005°53'0 0.0
2017-Jul-25 13:00N 43°06' E 005°53'0 0.0
2017-Jul-25 12:30N 43°06' E 005°53'0 0.0
2017-Jul-25 12:00N 43°06' E 005°53'0 0.0
2017-Jul-25 11:30N 43°06' E 005°53'0 0.0
2017-Jul-25 11:00N 43°06' E 005°53'0 0.0
2017-Jul-25 10:30N 43°06' E 005°53'0 0.0
2017-Jul-25 10:00N 43°06' E 005°53'0 0.0
2017-Jul-25 09:30N 43°06' E 005°53'0 0.0
2017-Jul-25 09:00N 43°06' E 005°53'0 0.0
2017-Jul-25 08:30N 43°06' E 005°53'0 0.0
2017-Jul-25 08:00N 43°06' E 005°53'0 0.0
2017-Jul-25 07:30N 43°06' E 005°53'0 0.6
2017-Jul-25 07:01N 43°06' E 005°54'1 0.4
2017-Jul-25 04:28N 43°06' E 005°55'28 5.3
2017-Jul-24 23:04N 43°03' E 005°16'110.4
2017-Jul-24 23:00N 43°03' E 005°16'510.7
2017-Jul-24 22:30N 43°05' E 005°09'510.9
2017-Jul-24 22:00N 43°09' E 005°04'610.6
2017-Jul-24 21:26N 43°15' E 004°60'511.2
2017-Jul-24 21:01N 43°19' E 004°59'5 9.0
2017-Jul-24 20:30N 43°24' E 004°59'0 0.3
2017-Jul-24 20:00N 43°24' E 004°59'0 0.0
2017-Jul-24 19:23N 43°24' E 004°59'0 0.0
2017-Jul-24 18:53N 43°24' E 004°59'0 0.0
2017-Jul-24 18:29N 43°24' E 004°59'0 0.0
2017-Jul-24 17:59N 43°24' E 004°59'0 0.0
2017-Jul-24 17:29N 43°24' E 004°59'0 0.0
2017-Jul-24 16:56N 43°24' E 004°59'0 0.0
2017-Jul-24 16:26N 43°24' E 004°59'0 0.0
2017-Jul-24 15:59N 43°24' E 004°59'0 0.0
2017-Jul-24 12:59N 43°24' E 004°59'0 0.0
2017-Jul-24 12:29N 43°24' E 004°59'0 0.0
2017-Jul-24 11:56N 43°24' E 004°59'0 0.0
2017-Jul-24 11:29N 43°24' E 004°59'0 0.0
2017-Jul-24 10:59N 43°24' E 004°59'0 0.0
2017-Jul-24 10:29N 43°24' E 004°59'0 0.0
2017-Jul-24 09:59N 43°24' E 004°59'0 0.0
2017-Jul-24 09:26N 43°24' E 004°59'0 0.0
2017-Jul-24 08:59N 43°24' E 004°59'0 0.0
2017-Jul-24 08:29N 43°24' E 004°59'0 0.0
2017-Jul-24 07:59N 43°24' E 004°59'0 0.0
2017-Jul-24 07:26N 43°24' E 004°59'0 0.0
2017-Jul-24 06:53N 43°24' E 004°59'0 0.0
2017-Jul-24 06:26N 43°24' E 004°59'0 0.0
2017-Jul-24 05:59N 43°24' E 004°59'1 1.2
2017-Jul-24 05:29N 43°24' E 004°59'0 0.0
2017-Jul-24 04:59N 43°24' E 004°59'0 0.0
2017-Jul-24 04:29N 43°24' E 004°59'0 0.0
2017-Jul-24 03:59N 43°24' E 004°59'0 0.0
2017-Jul-24 03:29N 43°24' E 004°59'0 0.0
2017-Jul-24 02:59N 43°24' E 004°59'0 0.0
2017-Jul-24 02:29N 43°24' E 004°59'0 0.0
2017-Jul-24 01:59N 43°24' E 004°59'0 0.0
2017-Jul-24 01:20N 43°24' E 004°59'0 0.0
2017-Jul-24 00:59N 43°24' E 004°59'0 0.0
2017-Jul-24 00:29N 43°24' E 004°59'0 0.0
2017-Jul-23 23:59N 43°24' E 004°59'0 0.0
2017-Jul-23 23:29N 43°24' E 004°59'0 0.0
2017-Jul-23 22:59N 43°24' E 004°59'0 0.0
2017-Jul-23 22:29N 43°24' E 004°59'0 0.0
2017-Jul-23 21:59N 43°24' E 004°59'0 0.0
2017-Jul-23 21:29N 43°24' E 004°59'0 0.0
2017-Jul-23 20:59N 43°24' E 004°59'0 0.0
2017-Jul-23 20:20N 43°24' E 004°59'0 0.0
2017-Jul-23 19:59N 43°24' E 004°59'0 0.0
2017-Jul-23 19:23N 43°24' E 004°59'0 0.0
2017-Jul-23 18:59N 43°24' E 004°59'0 0.0
2017-Jul-23 18:29N 43°24' E 004°59'0 0.0
2017-Jul-23 17:50N 43°24' E 004°59'0 0.0
2017-Jul-23 17:29N 43°24' E 004°59'0 0.0
2017-Jul-23 16:59N 43°24' E 004°59'0 0.0
2017-Jul-23 16:29N 43°24' E 004°59'0 0.0
2017-Jul-23 15:59N 43°24' E 004°59'0 0.0
2017-Jul-23 15:29N 43°24' E 004°59'0 0.0
2017-Jul-23 14:59N 43°24' E 004°59'0 0.0
2017-Jul-23 14:29N 43°24' E 004°59'0 0.0
2017-Jul-23 13:59N 43°24' E 004°59'0 0.0
2017-Jul-23 13:29N 43°24' E 004°59'0 0.0
2017-Jul-23 12:59N 43°24' E 004°59'0 0.0
2017-Jul-23 12:29N 43°24' E 004°59'0 0.0
2017-Jul-23 11:56N 43°24' E 004°59'0 0.0
2017-Jul-23 11:29N 43°24' E 004°59'0 0.0
2017-Jul-23 10:56N 43°24' E 004°59'0 0.0
2017-Jul-23 10:29N 43°24' E 004°59'0 0.0
2017-Jul-23 09:59N 43°24' E 004°59'0 0.0
2017-Jul-23 09:29N 43°24' E 004°59'0 0.0
2017-Jul-23 08:59N 43°24' E 004°59'0 0.0
2017-Jul-23 08:29N 43°24' E 004°59'0 0.0
2017-Jul-23 07:59N 43°24' E 004°59'0 0.0
2017-Jul-23 07:29N 43°24' E 004°59'6 8.3
2017-Jul-23 06:45N 43°25' E 004°51'5 0.4
2017-Jul-22 18:44N 43°23' E 004°58'1 4.1
2017-Jul-22 18:29N 43°24' E 004°59'0 0.0
2017-Jul-22 17:59N 43°24' E 004°59'0 0.0
2017-Jul-22 17:29N 43°24' E 004°59'0 0.0
2017-Jul-22 16:56N 43°24' E 004°59'0 0.0
2017-Jul-22 16:29N 43°24' E 004°59'0 0.0
2017-Jul-22 15:53N 43°24' E 004°59'0 0.0
2017-Jul-22 15:29N 43°24' E 004°59'0 0.0
2017-Jul-22 14:56N 43°24' E 004°59'0 0.0
2017-Jul-22 13:59N 43°24' E 004°59'0 0.0
2017-Jul-22 13:29N 43°24' E 004°59'0 0.0
2017-Jul-22 12:59N 43°24' E 004°59'0 0.0
2017-Jul-22 12:29N 43°24' E 004°59'0 0.0
2017-Jul-22 11:59N 43°24' E 004°59'0 0.0
2017-Jul-22 11:29N 43°24' E 004°59'0 0.0
2017-Jul-22 10:56N 43°24' E 004°59'0 0.0
2017-Jul-22 10:26N 43°24' E 004°59'0 0.0
2017-Jul-22 09:59N 43°24' E 004°59'0 0.0
2017-Jul-22 09:29N 43°24' E 004°59'0 0.0
2017-Jul-22 08:59N 43°24' E 004°59'0 0.0
2017-Jul-22 08:26N 43°24' E 004°59'0 0.0
2017-Jul-22 07:59N 43°24' E 004°59'0 0.0
2017-Jul-22 07:23N 43°24' E 004°59'0 0.0
2017-Jul-22 06:59N 43°24' E 004°59'1 1.1
2017-Jul-22 06:25N 43°24' E 004°59'0 0.0
2017-Jul-22 05:58N 43°24' E 004°59'0 0.0
2017-Jul-22 05:25N 43°24' E 004°59'0 0.0
2017-Jul-22 04:58N 43°24' E 004°59'0 0.0
2017-Jul-22 04:28N 43°24' E 004°59'0 0.0
2017-Jul-22 03:58N 43°24' E 004°59'0 0.0
2017-Jul-22 03:28N 43°24' E 004°59'0 0.0
2017-Jul-22 02:55N 43°24' E 004°59'0 0.0
2017-Jul-22 02:25N 43°24' E 004°59'0 0.0
2017-Jul-22 01:43N 43°24' E 004°59'0 0.0
2017-Jul-22 01:25N 43°24' E 004°59'0 0.0
2017-Jul-22 00:58N 43°24' E 004°59'0 0.0
2017-Jul-22 00:22N 43°24' E 004°59'0 0.0
2017-Jul-21 23:58N 43°24' E 004°59'0 0.0
2017-Jul-21 23:28N 43°24' E 004°59'0 0.0
2017-Jul-21 22:58N 43°24' E 004°59'0 0.0
2017-Jul-21 22:28N 43°24' E 004°59'0 0.0
2017-Jul-21 21:58N 43°24' E 004°59'0 0.0
2017-Jul-21 21:28N 43°24' E 004°59'0 0.0
2017-Jul-21 20:58N 43°24' E 004°59'0 0.0
2017-Jul-21 20:28N 43°24' E 004°59'0 0.0
2017-Jul-21 19:55N 43°24' E 004°59'0 0.0
2017-Jul-21 19:28N 43°24' E 004°59'0 0.0
2017-Jul-21 18:58N 43°24' E 004°59'0 0.0
2017-Jul-21 18:25N 43°24' E 004°59'0 0.0
2017-Jul-21 17:58N 43°24' E 004°59'0 0.0
2017-Jul-21 17:25N 43°24' E 004°59'0 0.0
2017-Jul-21 16:55N 43°24' E 004°59'0 0.0
2017-Jul-21 16:25N 43°24' E 004°59'0 0.0
2017-Jul-21 15:55N 43°24' E 004°59'0 0.8
2017-Jul-21 15:30N 43°24' E 004°59'7 1.2
2017-Jul-21 09:33N 43°17' E 005°04'010.5
2017-Jul-21 09:30N 43°17' E 005°03'5 9.6
2017-Jul-21 08:57N 43°22' E 004°59'2 5.3
2017-Jul-21 08:30N 43°24' E 004°59'0 0.0
2017-Jul-21 08:00N 43°24' E 004°59'0 0.0
2017-Jul-21 07:30N 43°24' E 004°59'0 0.0
2017-Jul-21 07:00N 43°24' E 004°59'0 0.0
2017-Jul-21 06:30N 43°24' E 004°59'0 0.0
2017-Jul-21 05:57N 43°24' E 004°59'0 0.0
2017-Jul-21 05:30N 43°24' E 004°59'1 1.1
2017-Jul-21 04:59N 43°24' E 004°59'0 0.0
2017-Jul-21 04:29N 43°24' E 004°59'0 0.0
2017-Jul-21 03:59N 43°24' E 004°59'0 0.0
2017-Jul-21 03:29N 43°24' E 004°59'0 0.0
2017-Jul-21 02:59N 43°24' E 004°59'0 0.0
2017-Jul-21 02:29N 43°24' E 004°59'0 0.0
2017-Jul-21 01:59N 43°24' E 004°59'0 0.0
2017-Jul-21 01:29N 43°24' E 004°59'0 0.0
2017-Jul-21 00:56N 43°24' E 004°59'0 0.0
2017-Jul-21 00:29N 43°24' E 004°59'0 0.0
2017-Jul-20 23:59N 43°24' E 004°59'0 0.0
2017-Jul-20 23:29N 43°24' E 004°59'0 0.0
2017-Jul-20 22:59N 43°24' E 004°59'0 0.0
2017-Jul-20 22:29N 43°24' E 004°59'0 0.0
2017-Jul-20 21:59N 43°24' E 004°59'0 0.0
2017-Jul-20 21:29N 43°24' E 004°59'0 0.0
2017-Jul-20 20:59N 43°24' E 004°59'0 0.0
2017-Jul-20 20:26N 43°24' E 004°59'1 1.6
2017-Jul-20 20:00N 43°23' E 004°59'611.1
2017-Jul-20 19:29N 43°25' E 004°51'0 0.0
2017-Jul-20 10:10N 43°25' E 004°51'6 9.4
2017-Jul-20 09:33N 43°23' E 004°58'0 9.5
2017-Jul-20 09:30N 43°23' E 004°59'1 1.0
2017-Jul-20 08:58N 43°24' E 004°59'0 0.0
2017-Jul-20 08:28N 43°24' E 004°59'0 0.0
2017-Jul-20 07:58N 43°24' E 004°59'0 0.0
2017-Jul-20 07:28N 43°24' E 004°59'0 0.0
2017-Jul-20 06:55N 43°24' E 004°59'0 0.0
2017-Jul-20 06:28N 43°24' E 004°59'0 0.0
2017-Jul-20 05:58N 43°24' E 004°59'0 0.0
2017-Jul-20 05:28N 43°24' E 004°59'0 0.0
2017-Jul-20 04:58N 43°24' E 004°59'0 0.0
2017-Jul-20 04:28N 43°24' E 004°59'0 0.0
2017-Jul-20 03:58N 43°24' E 004°59'0 0.0
2017-Jul-20 03:28N 43°24' E 004°59'0 0.0
2017-Jul-20 02:58N 43°24' E 004°59'0 0.0
2017-Jul-20 02:28N 43°24' E 004°59'0 0.0
2017-Jul-20 01:55N 43°24' E 004°59'0 0.0
2017-Jul-20 01:25N 43°24' E 004°59'0 0.0
2017-Jul-20 00:55N 43°24' E 004°59'0 0.0
2017-Jul-20 00:25N 43°24' E 004°59'0 0.0
2017-Jul-19 23:49N 43°24' E 004°59'0 0.0
2017-Jul-19 23:28N 43°24' E 004°59'0 0.0
2017-Jul-19 22:58N 43°24' E 004°59'0 0.0
2017-Jul-19 22:28N 43°24' E 004°59'0 0.0
2017-Jul-19 21:55N 43°24' E 004°59'0 0.0
2017-Jul-19 21:28N 43°24' E 004°59'0 0.0
2017-Jul-19 20:55N 43°24' E 004°59'1 1.3
2017-Jul-19 20:30N 43°24' E 004°59'0 0.0
2017-Jul-19 20:00N 43°24' E 004°59'0 0.0
2017-Jul-19 19:30N 43°24' E 004°59'0 0.0
2017-Jul-19 19:00N 43°24' E 004°59'0 0.0
2017-Jul-19 18:30N 43°24' E 004°59'0 0.0
2017-Jul-19 18:00N 43°24' E 004°59'0 0.0
2017-Jul-19 17:30N 43°24' E 004°59'0 0.0
2017-Jul-19 17:00N 43°24' E 004°59'0 0.0
2017-Jul-19 16:30N 43°24' E 004°59'0 0.0
2017-Jul-19 16:00N 43°24' E 004°59'0 0.0
2017-Jul-19 15:30N 43°24' E 004°59'0 0.0
2017-Jul-19 15:00N 43°24' E 004°59'0 0.0
2017-Jul-19 14:30N 43°24' E 004°59'0 0.0
2017-Jul-19 14:00N 43°24' E 004°59'0 0.0
2017-Jul-19 13:30N 43°24' E 004°59'0 0.0
2017-Jul-19 13:00N 43°24' E 004°59'0 0.0
2017-Jul-19 12:30N 43°24' E 004°59'0 0.0
2017-Jul-19 12:00N 43°24' E 004°59'0 0.0
2017-Jul-19 11:30N 43°24' E 004°59'0 0.0
2017-Jul-19 11:00N 43°24' E 004°59'0 0.0
2017-Jul-19 10:30N 43°24' E 004°59'0 0.0
2017-Jul-19 10:00N 43°24' E 004°59'0 0.0
2017-Jul-19 09:30N 43°24' E 004°59'0 0.0
2017-Jul-19 09:00N 43°24' E 004°59'0 0.0
2017-Jul-19 08:30N 43°24' E 004°59'0 0.0
2017-Jul-19 08:00N 43°24' E 004°59'0 0.0
2017-Jul-19 07:30N 43°24' E 004°59'0 0.0
2017-Jul-19 07:00N 43°24' E 004°59'0 0.0
2017-Jul-19 06:30N 43°24' E 004°59'0 0.0
2017-Jul-19 06:00N 43°24' E 004°59'1 0.1
2017-Jul-18 20:33N 43°23' E 004°58'0 9.9
2017-Jul-18 20:30N 43°23' E 004°59'1 1.2
2017-Jul-18 20:00N 43°24' E 004°59'0 0.0
2017-Jul-18 19:30N 43°24' E 004°59'0 0.0
2017-Jul-18 19:01N 43°24' E 004°59'0 0.0
2017-Jul-18 18:31N 43°24' E 004°59'0 0.0
2017-Jul-18 18:01N 43°24' E 004°59'0 0.0
2017-Jul-18 17:30N 43°24' E 004°59'0 0.0
2017-Jul-18 17:00N 43°24' E 004°59'0 0.0
2017-Jul-18 16:30N 43°24' E 004°59'0 0.0
2017-Jul-18 16:00N 43°24' E 004°59'0 0.0
2017-Jul-18 15:30N 43°24' E 004°59'0 0.0
2017-Jul-18 15:01N 43°24' E 004°59'0 0.0
2017-Jul-18 14:00N 43°24' E 004°59'0 0.0
2017-Jul-18 13:30N 43°24' E 004°59'0 0.0
2017-Jul-18 13:00N 43°24' E 004°59'0 0.0
2017-Jul-18 12:30N 43°24' E 004°59'  
Track history (hours):
 
Tides and Currents Weather Stations Pressure Air Temp Water Temp Dewpoint Dewpoint Depression Visibility Wind Speed Wind Dir Waves Ship Positions

Cap Aiguades

Last reported at 2017-Jul-28 08:03 UTC. Time now 2017-Jul-28 10:46 UTC.
Position N 43°17' E 005°04'.

Length 89 m; draft 5 m.

Type: Ship. MMSI: 228237800.

Date/timePositionNaut miles runAvg speedWind from/ knotsBaromVisibWave heightAir tempDewpointWater temp
2017-Jul-28 08:03N 43°17' E 005°04'111.1
2017-Jul-28 08:00N 43°17' E 005°03'610.9
2017-Jul-28 07:27N 43°22' E 004°58'2 4.4
2017-Jul-28 07:00N 43°24' E 004°59'0 0.0
2017-Jul-28 06:30N 43°24' E 004°59'0 0.0
2017-Jul-28 06:00N 43°24' E 004°59'0 0.0
2017-Jul-28 05:30N 43°24' E 004°59'0 0.0
2017-Jul-28 05:00N 43°24' E 004°59'0 0.0
2017-Jul-28 04:30N 43°24' E 004°59'0 0.0
2017-Jul-28 04:00N 43°24' E 004°59'0 0.0
2017-Jul-28 03:30N 43°24' E 004°59'0 0.0
2017-Jul-28 03:00N 43°24' E 004°59'0 0.0
2017-Jul-28 02:30N 43°24' E 004°59'0 0.0
2017-Jul-28 02:00N 43°24' E 004°59'0 0.0
2017-Jul-28 01:30N 43°24' E 004°59'0 0.0
2017-Jul-28 01:00N 43°24' E 004°59'0 0.0
2017-Jul-28 00:30N 43°24' E 004°59'0 0.0
2017-Jul-28 00:00N 43°24' E 004°59'0 0.0
2017-Jul-27 23:30N 43°24' E 004°59'0 0.0
2017-Jul-27 23:00N 43°24' E 004°59'0 0.0
2017-Jul-27 22:30N 43°24' E 004°59'0 0.9
2017-Jul-27 22:00N 43°24' E 004°60'0 0.0
2017-Jul-27 21:30N 43°24' E 004°60'0 0.0
2017-Jul-27 21:00N 43°24' E 004°60'0 0.0
2017-Jul-27 20:30N 43°24' E 004°60'0 0.0
2017-Jul-27 20:00N 43°24' E 004°60'0 0.0
2017-Jul-27 19:30N 43°24' E 004°60'0 0.7
2017-Jul-27 19:00N 43°24' E 004°59'0 0.0
2017-Jul-27 18:30N 43°24' E 004°59'0 0.0
2017-Jul-27 18:00N 43°24' E 004°59'0 0.0
2017-Jul-27 17:30N 43°24' E 004°59'0 0.0
2017-Jul-27 17:00N 43°24' E 004°59'0 0.0
2017-Jul-27 16:30N 43°24' E 004°59'0 0.0
2017-Jul-27 16:00N 43°24' E 004°59'0 0.0
2017-Jul-27 15:30N 43°24' E 004°59'0 0.0
2017-Jul-27 15:00N 43°24' E 004°59'0 0.0
2017-Jul-27 14:00N 43°24' E 004°59'0 0.0
2017-Jul-27 13:30N 43°24' E 004°59'0 0.0
2017-Jul-27 13:00N 43°24' E 004°59'0 0.0
2017-Jul-27 12:30N 43°24' E 004°59'0 0.0
2017-Jul-27 12:00N 43°24' E 004°59'0 0.0
2017-Jul-27 11:30N 43°24' E 004°59'0 0.0
2017-Jul-27 11:00N 43°24' E 004°59'0 0.0
2017-Jul-27 10:30N 43°24' E 004°59'0 0.0
2017-Jul-27 10:00N 43°24' E 004°59'0 0.0
2017-Jul-27 09:30N 43°24' E 004°59'0 0.0
2017-Jul-27 09:00N 43°24' E 004°59'0 0.0
2017-Jul-27 08:30N 43°24' E 004°59'0 0.0
2017-Jul-27 08:00N 43°24' E 004°59'0 0.0
2017-Jul-27 07:30N 43°24' E 004°59'0 0.0
2017-Jul-27 07:00N 43°24' E 004°59'0 0.0
2017-Jul-27 06:30N 43°24' E 004°59'0 0.0
2017-Jul-27 06:00N 43°24' E 004°59'0 0.0
2017-Jul-27 05:30N 43°24' E 004°59'5 8.1
2017-Jul-27 04:53N 43°19' E 004°60'510.4
2017-Jul-27 04:25N 43°14' E 005°02'4 9.5
2017-Jul-27 04:00N 43°11' E 005°06'3810.2
2017-Jul-27 00:15N 43°05' E 005°58'3 0.4
2017-Jul-26 17:53N 43°07' E 005°55'1 2.2
2017-Jul-26 17:28N 43°06' E 005°53'0 0.0
2017-Jul-26 16:58N 43°06' E 005°53'0 0.0
2017-Jul-26 16:25N 43°06' E 005°53'0 0.0
2017-Jul-26 15:58N 43°06' E 005°53'0 0.0
2017-Jul-26 15:28N 43°06' E 005°53'0 0.0
2017-Jul-26 14:55N 43°06' E 005°53'0 0.0
2017-Jul-26 13:58N 43°06' E 005°53'0 0.0
2017-Jul-26 13:31N 43°06' E 005°53'0 0.0
2017-Jul-26 12:58N 43°06' E 005°53'0 0.0
2017-Jul-26 12:28N 43°06' E 005°53'0 0.0
2017-Jul-26 11:58N 43°06' E 005°53'0 0.0
2017-Jul-26 11:28N 43°06' E 005°53'0 0.0
2017-Jul-26 10:58N 43°06' E 005°53'0 0.0
2017-Jul-26 10:28N 43°06' E 005°53'0 0.0
2017-Jul-26 09:58N 43°06' E 005°53'1 0.1
2017-Jul-26 05:30N 43°06' E 005°54'1 1.0
2017-Jul-26 04:59N 43°06' E 005°53'0 0.0
2017-Jul-26 04:29N 43°06' E 005°53'0 0.0
2017-Jul-26 03:59N 43°06' E 005°53'0 0.0
2017-Jul-26 03:29N 43°06' E 005°53'0 0.0
2017-Jul-26 02:59N 43°06' E 005°53'0 0.0
2017-Jul-26 02:29N 43°06' E 005°53'0 0.0
2017-Jul-26 01:59N 43°06' E 005°53'0 0.0
2017-Jul-26 01:29N 43°06' E 005°53'0 0.0
2017-Jul-26 00:59N 43°06' E 005°53'0 0.0
2017-Jul-26 00:29N 43°06' E 005°53'0 0.0
2017-Jul-25 23:59N 43°06' E 005°53'0 0.0
2017-Jul-25 23:29N 43°06' E 005°53'0 0.0
2017-Jul-25 22:59N 43°06' E 005°53'0 0.0
2017-Jul-25 22:29N 43°06' E 005°53'1 0.2
2017-Jul-25 17:55N 43°06' E 005°55'1 2.1
2017-Jul-25 17:29N 43°06' E 005°53'0 0.0
2017-Jul-25 16:59N 43°06' E 005°53'0 0.0
2017-Jul-25 16:29N 43°06' E 005°53'0 0.0
2017-Jul-25 16:00N 43°06' E 005°53'0 0.0
2017-Jul-25 15:30N 43°06' E 005°53'0 0.0
2017-Jul-25 15:00N 43°06' E 005°53'0 0.0
2017-Jul-25 14:00N 43°06' E 005°53'0 0.0
2017-Jul-25 13:30N 43°06' E 005°53'0 0.0
2017-Jul-25 13:00N 43°06' E 005°53'0 0.0
2017-Jul-25 12:30N 43°06' E 005°53'0 0.0
2017-Jul-25 12:00N 43°06' E 005°53'0 0.0
2017-Jul-25 11:30N 43°06' E 005°53'0 0.0
2017-Jul-25 11:00N 43°06' E 005°53'0 0.0
2017-Jul-25 10:30N 43°06' E 005°53'0 0.0
2017-Jul-25 10:00N 43°06' E 005°53'0 0.0
2017-Jul-25 09:30N 43°06' E 005°53'0 0.0
2017-Jul-25 09:00N 43°06' E 005°53'0 0.0
2017-Jul-25 08:30N 43°06' E 005°53'0 0.0
2017-Jul-25 08:00N 43°06' E 005°53'0 0.0
2017-Jul-25 07:30N 43°06' E 005°53'0 0.6
2017-Jul-25 07:01N 43°06' E 005°54'1 0.4
2017-Jul-25 04:28N 43°06' E 005°55'28 5.3
2017-Jul-24 23:04N 43°03' E 005°16'110.4
2017-Jul-24 23:00N 43°03' E 005°16'510.7
2017-Jul-24 22:30N 43°05' E 005°09'510.9
2017-Jul-24 22:00N 43°09' E 005°04'610.6
2017-Jul-24 21:26N 43°15' E 004°60'511.2
2017-Jul-24 21:01N 43°19' E 004°59'5 9.0
2017-Jul-24 20:30N 43°24' E 004°59'0 0.3
2017-Jul-24 20:00N 43°24' E 004°59'0 0.0
2017-Jul-24 19:23N 43°24' E 004°59'0 0.0
2017-Jul-24 18:53N 43°24' E 004°59'0 0.0
2017-Jul-24 18:29N 43°24' E 004°59'0 0.0
2017-Jul-24 17:59N 43°24' E 004°59'0 0.0
2017-Jul-24 17:29N 43°24' E 004°59'0 0.0
2017-Jul-24 16:56N 43°24' E 004°59'0 0.0
2017-Jul-24 16:26N 43°24' E 004°59'0 0.0
2017-Jul-24 15:59N 43°24' E 004°59'0 0.0
2017-Jul-24 12:59N 43°24' E 004°59'0 0.0
2017-Jul-24 12:29N 43°24' E 004°59'0 0.0
2017-Jul-24 11:56N 43°24' E 004°59'0 0.0
2017-Jul-24 11:29N 43°24' E 004°59'0 0.0
2017-Jul-24 10:59N 43°24' E 004°59'0 0.0
2017-Jul-24 10:29N 43°24' E 004°59'0 0.0
2017-Jul-24 09:59N 43°24' E 004°59'0 0.0
2017-Jul-24 09:26N 43°24' E 004°59'0 0.0
2017-Jul-24 08:59N 43°24' E 004°59'0 0.0
2017-Jul-24 08:29N 43°24' E 004°59'0 0.0
2017-Jul-24 07:59N 43°24' E 004°59'0 0.0
2017-Jul-24 07:26N 43°24' E 004°59'0 0.0
2017-Jul-24 06:53N 43°24' E 004°59'0 0.0
2017-Jul-24 06:26N 43°24' E 004°59'0 0.0
2017-Jul-24 05:59N 43°24' E 004°59'1 1.2
2017-Jul-24 05:29N 43°24' E 004°59'0 0.0
2017-Jul-24 04:59N 43°24' E 004°59'0 0.0
2017-Jul-24 04:29N 43°24' E 004°59'0 0.0
2017-Jul-24 03:59N 43°24' E 004°59'0 0.0
2017-Jul-24 03:29N 43°24' E 004°59'0 0.0
2017-Jul-24 02:59N 43°24' E 004°59'0 0.0
2017-Jul-24 02:29N 43°24' E 004°59'0 0.0
2017-Jul-24 01:59N 43°24' E 004°59'0 0.0
2017-Jul-24 01:20N 43°24' E 004°59'0 0.0
2017-Jul-24 00:59N 43°24' E 004°59'0 0.0
2017-Jul-24 00:29N 43°24' E 004°59'0 0.0
2017-Jul-23 23:59N 43°24' E 004°59'0 0.0
2017-Jul-23 23:29N 43°24' E 004°59'0 0.0
2017-Jul-23 22:59N 43°24' E 004°59'0 0.0
2017-Jul-23 22:29N 43°24' E 004°59'0 0.0
2017-Jul-23 21:59N 43°24' E 004°59'0 0.0
2017-Jul-23 21:29N 43°24' E 004°59'0 0.0
2017-Jul-23 20:59N 43°24' E 004°59'0 0.0
2017-Jul-23 20:20N 43°24' E 004°59'0 0.0
2017-Jul-23 19:59N 43°24' E 004°59'0 0.0
2017-Jul-23 19:23N 43°24' E 004°59'0 0.0
2017-Jul-23 18:59N 43°24' E 004°59'0 0.0
2017-Jul-23 18:29N 43°24' E 004°59'0 0.0
2017-Jul-23 17:50N 43°24' E 004°59'0 0.0
2017-Jul-23 17:29N 43°24' E 004°59'0 0.0
2017-Jul-23 16:59N 43°24' E 004°59'0 0.0
2017-Jul-23 16:29N 43°24' E 004°59'0 0.0
2017-Jul-23 15:59N 43°24' E 004°59'0 0.0
2017-Jul-23 15:29N 43°24' E 004°59'0 0.0
2017-Jul-23 14:59N 43°24' E 004°59'0 0.0
2017-Jul-23 14:29N 43°24' E 004°59'0 0.0
2017-Jul-23 13:59N 43°24' E 004°59'0 0.0
2017-Jul-23 13:29N 43°24' E 004°59'0 0.0
2017-Jul-23 12:59N 43°24' E 004°59'0 0.0
2017-Jul-23 12:29N 43°24' E 004°59'0 0.0
2017-Jul-23 11:56N 43°24' E 004°59'0 0.0
2017-Jul-23 11:29N 43°24' E 004°59'0 0.0
2017-Jul-23 10:56N 43°24' E 004°59'0 0.0
2017-Jul-23 10:29N 43°24' E 004°59'0 0.0
2017-Jul-23 09:59N 43°24' E 004°59'0 0.0
2017-Jul-23 09:29N 43°24' E 004°59'0 0.0
2017-Jul-23 08:59N 43°24' E 004°59'0 0.0
2017-Jul-23 08:29N 43°24' E 004°59'0 0.0
2017-Jul-23 07:59N 43°24' E 004°59'0 0.0
2017-Jul-23 07:29N 43°24' E 004°59'6 8.3
2017-Jul-23 06:45N 43°25' E 004°51'5 0.4
2017-Jul-22 18:44N 43°23' E 004°58'1 4.1
2017-Jul-22 18:29N 43°24' E 004°59'0 0.0
2017-Jul-22 17:59N 43°24' E 004°59'0 0.0
2017-Jul-22 17:29N 43°24' E 004°59'0 0.0
2017-Jul-22 16:56N 43°24' E 004°59'0 0.0
2017-Jul-22 16:29N 43°24' E 004°59'0 0.0
2017-Jul-22 15:53N 43°24' E 004°59'0 0.0
2017-Jul-22 15:29N 43°24' E 004°59'0 0.0
2017-Jul-22 14:56N 43°24' E 004°59'0 0.0
2017-Jul-22 13:59N 43°24' E 004°59'0 0.0
2017-Jul-22 13:29N 43°24' E 004°59'0 0.0
2017-Jul-22 12:59N 43°24' E 004°59'0 0.0
2017-Jul-22 12:29N 43°24' E 004°59'0 0.0
2017-Jul-22 11:59N 43°24' E 004°59'0 0.0
2017-Jul-22 11:29N 43°24' E 004°59'0 0.0
2017-Jul-22 10:56N 43°24' E 004°59'0 0.0
2017-Jul-22 10:26N 43°24' E 004°59'0 0.0
2017-Jul-22 09:59N 43°24' E 004°59'0 0.0
2017-Jul-22 09:29N 43°24' E 004°59'0 0.0
2017-Jul-22 08:59N 43°24' E 004°59'0 0.0
2017-Jul-22 08:26N 43°24' E 004°59'0 0.0
2017-Jul-22 07:59N 43°24' E 004°59'0 0.0
2017-Jul-22 07:23N 43°24' E 004°59'0 0.0
2017-Jul-22 06:59N 43°24' E 004°59'1 1.1
2017-Jul-22 06:25N 43°24' E 004°59'0 0.0
2017-Jul-22 05:58N 43°24' E 004°59'0 0.0
2017-Jul-22 05:25N 43°24' E 004°59'0 0.0
2017-Jul-22 04:58N 43°24' E 004°59'0 0.0
2017-Jul-22 04:28N 43°24' E 004°59'0 0.0
2017-Jul-22 03:58N 43°24' E 004°59'0 0.0
2017-Jul-22 03:28N 43°24' E 004°59'0 0.0
2017-Jul-22 02:55N 43°24' E 004°59'0 0.0
2017-Jul-22 02:25N 43°24' E 004°59'0 0.0
2017-Jul-22 01:43N 43°24' E 004°59'0 0.0
2017-Jul-22 01:25N 43°24' E 004°59'0 0.0
2017-Jul-22 00:58N 43°24' E 004°59'0 0.0
2017-Jul-22 00:22N 43°24' E 004°59'0 0.0
2017-Jul-21 23:58N 43°24' E 004°59'0 0.0
2017-Jul-21 23:28N 43°24' E 004°59'0 0.0
2017-Jul-21 22:58N 43°24' E 004°59'0 0.0
2017-Jul-21 22:28N 43°24' E 004°59'0 0.0
2017-Jul-21 21:58N 43°24' E 004°59'0 0.0
2017-Jul-21 21:28N 43°24' E 004°59'0 0.0
2017-Jul-21 20:58N 43°24' E 004°59'0 0.0
2017-Jul-21 20:28N 43°24' E 004°59'0 0.0
2017-Jul-21 19:55N 43°24' E 004°59'0 0.0
2017-Jul-21 19:28N 43°24' E 004°59'0 0.0
2017-Jul-21 18:58N 43°24' E 004°59'0 0.0
2017-Jul-21 18:25N 43°24' E 004°59'0 0.0
2017-Jul-21 17:58N 43°24' E 004°59'0 0.0
2017-Jul-21 17:25N 43°24' E 004°59'0 0.0
2017-Jul-21 16:55N 43°24' E 004°59'0 0.0
2017-Jul-21 16:25N 43°24' E 004°59'0 0.0
2017-Jul-21 15:55N 43°24' E 004°59'0 0.8
2017-Jul-21 15:30N 43°24' E 004°59'7 1.2
2017-Jul-21 09:33N 43°17' E 005°04'010.5
2017-Jul-21 09:30N 43°17' E 005°03'5 9.6
2017-Jul-21 08:57N 43°22' E 004°59'2 5.3
2017-Jul-21 08:30N 43°24' E 004°59'0 0.0
2017-Jul-21 08:00N 43°24' E 004°59'0 0.0
2017-Jul-21 07:30N 43°24' E 004°59'0 0.0
2017-Jul-21 07:00N 43°24' E 004°59'0 0.0
2017-Jul-21 06:30N 43°24' E 004°59'0 0.0
2017-Jul-21 05:57N 43°24' E 004°59'0 0.0
2017-Jul-21 05:30N 43°24' E 004°59'1 1.1
2017-Jul-21 04:59N 43°24' E 004°59'0 0.0
2017-Jul-21 04:29N 43°24' E 004°59'0 0.0
2017-Jul-21 03:59N 43°24' E 004°59'0 0.0
2017-Jul-21 03:29N 43°24' E 004°59'0 0.0
2017-Jul-21 02:59N 43°24' E 004°59'0 0.0
2017-Jul-21 02:29N 43°24' E 004°59'0 0.0
2017-Jul-21 01:59N 43°24' E 004°59'0 0.0
2017-Jul-21 01:29N 43°24' E 004°59'0 0.0
2017-Jul-21 00:56N 43°24' E 004°59'0 0.0
2017-Jul-21 00:29N 43°24' E 004°59'0 0.0
2017-Jul-20 23:59N 43°24' E 004°59'0 0.0
2017-Jul-20 23:29N 43°24' E 004°59'0 0.0
2017-Jul-20 22:59N 43°24' E 004°59'0 0.0
2017-Jul-20 22:29N 43°24' E 004°59'0 0.0
2017-Jul-20 21:59N 43°24' E 004°59'0 0.0
2017-Jul-20 21:29N 43°24' E 004°59'0 0.0
2017-Jul-20 20:59N 43°24' E 004°59'0 0.0
2017-Jul-20 20:26N 43°24' E 004°59'1 1.6
2017-Jul-20 20:00N 43°23' E 004°59'611.1
2017-Jul-20 19:29N 43°25' E 004°51'0 0.0
2017-Jul-20 10:10N 43°25' E 004°51'6 9.4
2017-Jul-20 09:33N 43°23' E 004°58'0 9.5
2017-Jul-20 09:30N 43°23' E 004°59'1 1.0
2017-Jul-20 08:58N 43°24' E 004°59'0 0.0
2017-Jul-20 08:28N 43°24' E 004°59'0 0.0
2017-Jul-20 07:58N 43°24' E 004°59'0 0.0
2017-Jul-20 07:28N 43°24' E 004°59'0 0.0
2017-Jul-20 06:55N 43°24' E 004°59'0 0.0
2017-Jul-20 06:28N 43°24' E 004°59'0 0.0
2017-Jul-20 05:58N 43°24' E 004°59'0 0.0
2017-Jul-20 05:28N 43°24' E 004°59'0 0.0
2017-Jul-20 04:58N 43°24' E 004°59'0 0.0
2017-Jul-20 04:28N 43°24' E 004°59'0 0.0
2017-Jul-20 03:58N 43°24' E 004°59'0 0.0
2017-Jul-20 03:28N 43°24' E 004°59'0 0.0
2017-Jul-20 02:58N 43°24' E 004°59'0 0.0
2017-Jul-20 02:28N 43°24' E 004°59'0 0.0
2017-Jul-20 01:55N 43°24' E 004°59'0 0.0
2017-Jul-20 01:25N 43°24' E 004°59'0 0.0
2017-Jul-20 00:55N 43°24' E 004°59'0 0.0
2017-Jul-20 00:25N 43°24' E 004°59'0 0.0
2017-Jul-19 23:49N 43°24' E 004°59'0 0.0
2017-Jul-19 23:28N 43°24' E 004°59'0 0.0
2017-Jul-19 22:58N 43°24' E 004°59'0 0.0
2017-Jul-19 22:28N 43°24' E 004°59'0 0.0
2017-Jul-19 21:55N 43°24' E 004°59'0 0.0
2017-Jul-19 21:28N 43°24' E 004°59'0 0.0
2017-Jul-19 20:55N 43°24' E 004°59'1 1.3
2017-Jul-19 20:30N 43°24' E 004°59'0 0.0
2017-Jul-19 20:00N 43°24' E 004°59'0 0.0
2017-Jul-19 19:30N 43°24' E 004°59'0 0.0
2017-Jul-19 19:00N 43°24' E 004°59'0 0.0
2017-Jul-19 18:30N 43°24' E 004°59'0 0.0
2017-Jul-19 18:00N 43°24' E 004°59'0 0.0
2017-Jul-19 17:30N 43°24' E 004°59'0 0.0
2017-Jul-19 17:00N 43°24' E 004°59'0 0.0
2017-Jul-19 16:30N 43°24' E 004°59'0 0.0
2017-Jul-19 16:00N 43°24' E 004°59'0 0.0
2017-Jul-19 15:30N 43°24' E 004°59'0 0.0
2017-Jul-19 15:00N 43°24' E 004°59'0 0.0
2017-Jul-19 14:30N 43°24' E 004°59'0 0.0
2017-Jul-19 14:00N 43°24' E 004°59'0 0.0
2017-Jul-19 13:30N 43°24' E 004°59'0 0.0
2017-Jul-19 13:00N 43°24' E 004°59'0 0.0
2017-Jul-19 12:30N 43°24' E 004°59'0 0.0
2017-Jul-19 12:00N 43°24' E 004°59'0 0.0
2017-Jul-19 11:30N 43°24' E 004°59'0 0.0
2017-Jul-19 11:00N 43°24' E 004°59'0 0.0
2017-Jul-19 10:30N 43°24' E 004°59'0 0.0
2017-Jul-19 10:00N 43°24' E 004°59'0 0.0
2017-Jul-19 09:30N 43°24' E 004°59'0 0.0
2017-Jul-19 09:00N 43°24' E 004°59'0 0.0
2017-Jul-19 08:30N 43°24' E 004°59'0 0.0
2017-Jul-19 08:00N 43°24' E 004°59'0 0.0
2017-Jul-19 07:30N 43°24' E 004°59'0 0.0
2017-Jul-19 07:00N 43°24' E 004°59'0 0.0
2017-Jul-19 06:30N 43°24' E 004°59'0 0.0
2017-Jul-19 06:00N 43°24' E 004°59'1 0.1
2017-Jul-18 20:33N 43°23' E 004°58'0 9.9
2017-Jul-18 20:30N 43°23' E 004°59'1 1.2
2017-Jul-18 20:00N 43°24' E 004°59'0 0.0
2017-Jul-18 19:30N 43°24' E 004°59'0 0.0
2017-Jul-18 19:01N 43°24' E 004°59'0 0.0
2017-Jul-18 18:31N 43°24' E 004°59'0 0.0
2017-Jul-18 18:01N 43°24' E 004°59'0 0.0
2017-Jul-18 17:30N 43°24' E 004°59'0 0.0
2017-Jul-18 17:00N 43°24' E 004°59'0 0.0
2017-Jul-18 16:30N 43°24' E 004°59'0 0.0
2017-Jul-18 16:00N 43°24' E 004°59'0 0.0
2017-Jul-18 15:30N 43°24' E 004°59'0 0.0
2017-Jul-18 15:01N 43°24' E 004°59'0 0.0
2017-Jul-18 14:00N 43°24' E 004°59'0 0.0
2017-Jul-18 13:30N 43°24' E 004°59'0 0.0
2017-Jul-18 13:00N 43°24' E 004°59'0 0.0
2017-Jul-18 12:30N 43°24' E 004°59'  

Dump ship's entire track history